createdAt,value
2022-09-22T00:01:22.055Z,11.48
2022-09-22T00:04:25.511Z,12.57
2022-09-22T00:07:29.618Z,12.60
2022-09-22T00:10:34.814Z,12.80
2022-09-22T00:13:38.616Z,11.82
2022-09-22T00:16:45.094Z,12.82
2022-09-22T00:19:48.600Z,12.20
2022-09-22T00:22:52.555Z,12.13
2022-09-22T00:25:57.264Z,12.50
2022-09-22T00:29:01.086Z,12.20
2022-09-22T00:32:07.315Z,12.35
2022-09-22T00:35:11.024Z,13.07
2022-09-22T00:38:14.632Z,11.65
2022-09-22T00:41:21.749Z,13.05
2022-09-22T00:44:38.484Z,12.50
2022-09-22T00:47:45.677Z,12.43
2022-09-22T00:50:50.091Z,12.90
2022-09-22T00:53:55.506Z,12.60
2022-09-22T00:57:07.949Z,13.13
2022-09-22T01:03:51.383Z,13.38
2022-09-22T01:06:56.581Z,11.93
2022-09-22T01:10:00.392Z,12.98
2022-09-22T01:13:18.104Z,12.60
2022-09-22T01:16:38.667Z,12.90
2022-09-22T01:20:11.327Z,12.90
2022-09-22T01:23:51.139Z,12.90
2022-09-22T01:27:17.336Z,9.75
2022-09-22T01:30:27.529Z,13.45
2022-09-22T01:33:44.346Z,13.68
2022-09-22T01:36:53.562Z,13.43
2022-09-22T01:40:02.998Z,13.00
2022-09-22T01:43:14.612Z,13.97
2022-09-22T01:46:26.421Z,12.98
2022-09-22T01:49:34.054Z,12.70
2022-09-22T01:52:41.248Z,12.85
2022-09-22T01:55:49.416Z,13.30
2022-09-22T01:58:56.924Z,13.25
2022-09-22T02:02:06.142Z,12.73
2022-09-22T02:05:15.849Z,13.02
2022-09-22T02:08:23.216Z,13.52
2022-09-22T02:11:26.752Z,12.65
2022-09-22T02:14:30.485Z,12.98
2022-09-22T02:17:35.701Z,11.70
2022-09-22T02:20:39.600Z,11.75
2022-09-22T02:23:43.371Z,12.57
2022-09-22T02:26:46.931Z,13.07
2022-09-22T02:29:54.891Z,12.65
2022-09-22T02:33:01.108Z,11.98
2022-09-22T02:36:18.242Z,12.38
2022-09-22T02:39:27.719Z,12.93
2022-09-22T02:42:34.964Z,13.40
2022-09-22T02:45:47.954Z,12.52
2022-09-22T02:48:56.005Z,13.00
2022-09-22T02:52:00.561Z,12.70
2022-09-22T02:55:04.250Z,13.00
2022-09-22T02:58:07.517Z,13.23
2022-09-22T03:01:10.782Z,13.18
2022-09-22T03:04:15.525Z,13.52
2022-09-22T03:07:19.168Z,14.00
2022-09-22T03:10:22.388Z,13.65
2022-09-22T03:13:25.710Z,14.85
2022-09-22T03:16:29.037Z,14.10
2022-09-22T03:19:33.729Z,14.55
2022-09-22T03:22:37.238Z,14.25
2022-09-22T03:25:40.564Z,15.10
2022-09-22T03:28:44.742Z,14.90
2022-09-22T03:31:48.095Z,14.55
2022-09-22T03:34:52.768Z,15.95
2022-09-22T03:37:56.055Z,15.55
2022-09-22T03:41:01.925Z,16.02
2022-09-22T03:44:05.882Z,16.13
2022-09-22T03:47:09.176Z,16.50
2022-09-22T03:50:14.500Z,15.40
2022-09-22T03:53:18.031Z,16.20
2022-09-22T03:56:21.634Z,16.92
2022-09-22T03:59:25.137Z,17.33
2022-09-22T04:02:28.413Z,17.23
2022-09-22T04:05:33.107Z,17.90
2022-09-22T04:08:36.399Z,17.70
2022-09-22T04:11:39.701Z,18.27
2022-09-22T04:14:43.084Z,17.65
2022-09-22T04:17:47.151Z,18.95
2022-09-22T04:20:51.826Z,18.83
2022-09-22T04:23:55.144Z,19.85
2022-09-22T04:30:21.822Z,17.27
2022-09-22T04:33:25.660Z,17.52
2022-09-22T04:36:30.290Z,17.08
2022-09-22T04:39:33.611Z,17.45
2022-09-22T04:42:37.109Z,17.83
2022-09-22T04:45:40.730Z,17.52
2022-09-22T04:48:43.936Z,17.92
2022-09-22T04:51:48.909Z,16.55
2022-09-22T04:54:52.330Z,17.20
2022-09-22T04:57:57.360Z,16.88
2022-09-22T05:01:04.043Z,17.38
2022-09-22T05:04:07.583Z,16.73
2022-09-22T05:07:12.356Z,30.35
2022-09-22T05:10:17.882Z,19.73
2022-09-22T05:13:21.454Z,17.52
2022-09-22T05:16:24.875Z,16.42
2022-09-22T05:19:28.157Z,16.40
2022-09-22T05:22:37.666Z,16.23
2022-09-22T05:25:44.300Z,16.02
2022-09-22T05:28:47.649Z,16.42
2022-09-22T05:31:51.491Z,16.23
2022-09-22T05:34:55.555Z,15.50
2022-09-22T05:38:04.030Z,15.77
2022-09-22T05:41:11.351Z,15.80
2022-09-22T05:44:14.704Z,15.30
2022-09-22T05:47:17.945Z,15.45
2022-09-22T05:50:23.808Z,13.77
2022-09-22T05:53:29.000Z,14.82
2022-09-22T05:56:32.779Z,13.73
2022-09-22T05:59:35.969Z,13.63
2022-09-22T06:02:39.546Z,12.88
2022-09-22T06:05:43.411Z,12.25
2022-09-22T06:08:49.208Z,11.88
2022-09-22T06:11:52.773Z,12.60
2022-09-22T06:14:56.675Z,11.80
2022-09-22T06:18:00.102Z,10.88
2022-09-22T06:21:03.355Z,11.02
2022-09-22T06:24:08.261Z,11.15
2022-09-22T06:27:11.581Z,11.45
2022-09-22T06:30:15.334Z,10.82
2022-09-22T06:33:18.676Z,10.70
2022-09-22T06:36:31.198Z,10.30
2022-09-22T06:39:37.534Z,10.52
2022-09-22T06:42:42.527Z,10.20
2022-09-22T06:45:46.702Z,10.13
2022-09-22T06:48:51.609Z,9.75
2022-09-22T06:52:40.463Z,10.32
2022-09-22T06:56:37.120Z,9.85
2022-09-22T07:26:43.957Z,11.15
2022-09-22T07:29:49.014Z,10.52
2022-09-22T07:32:52.714Z,11.57
2022-09-22T07:36:04.983Z,10.63
2022-09-22T07:39:11.052Z,8.05
2022-09-22T07:42:16.977Z,8.32
2022-09-22T07:45:22.050Z,11.00
2022-09-22T07:48:37.877Z,8.63
2022-09-22T07:51:41.348Z,14.02
2022-09-22T07:54:44.649Z,11.60
2022-09-22T07:57:55.277Z,9.32
2022-09-22T08:00:58.847Z,8.80
2022-09-22T08:04:02.879Z,8.48
2022-09-22T08:07:06.235Z,8.73
2022-09-22T08:10:12.942Z,12.55
2022-09-22T08:13:17.745Z,10.75
2022-09-22T08:16:22.714Z,8.85
2022-09-22T08:19:26.520Z,10.60
2022-09-22T08:22:30.434Z,9.40
2022-09-22T08:25:34.328Z,9.88
2022-09-22T08:28:39.246Z,10.10
2022-09-22T08:31:45.322Z,10.32
2022-09-22T08:34:49.118Z,10.82
2022-09-22T08:37:52.475Z,9.70
2022-09-22T08:41:12.542Z,10.65
2022-09-22T08:44:24.020Z,10.05
2022-09-22T08:47:50.194Z,10.10
2022-09-22T08:51:14.237Z,10.18
2022-09-22T08:54:17.593Z,9.55
2022-09-22T08:57:45.042Z,9.50
2022-09-22T09:00:57.216Z,9.98
2022-09-22T09:04:15.072Z,9.52
2022-09-22T09:07:30.777Z,9.75
2022-09-22T09:10:47.171Z,11.80
2022-09-22T09:14:04.001Z,9.70
2022-09-22T09:17:15.001Z,9.73
2022-09-22T09:20:21.831Z,9.65
2022-09-22T09:26:58.785Z,8.20
2022-09-22T09:30:06.967Z,8.30
2022-09-22T09:33:26.117Z,7.20
2022-09-22T09:36:33.395Z,6.85
2022-09-22T09:39:39.114Z,7.22
2022-09-22T09:42:43.322Z,7.13
2022-09-22T09:46:00.120Z,7.53
2022-09-22T09:49:11.526Z,6.47
2022-09-22T09:52:15.762Z,5.35
2022-09-22T09:55:27.398Z,5.53
2022-09-22T09:58:48.389Z,8.75
2022-09-22T10:01:54.800Z,10.40
2022-09-22T10:05:03.356Z,6.78
2022-09-22T10:08:16.822Z,13.30
2022-09-22T10:11:31.346Z,6.05
2022-09-22T10:14:36.483Z,5.68
2022-09-22T10:17:42.232Z,5.40
2022-09-22T10:20:47.171Z,4.75
2022-09-22T10:23:51.729Z,5.43
2022-09-22T10:26:57.436Z,7.53
2022-09-22T10:34:51.160Z,4.60
2022-09-22T10:37:59.203Z,4.28
2022-09-22T10:41:07.960Z,4.25
2022-09-22T10:44:37.902Z,4.20
2022-09-22T10:47:57.898Z,4.22
2022-09-22T10:51:10.905Z,3.00
2022-09-22T10:54:29.129Z,4.20
2022-09-22T10:57:56.693Z,4.22
2022-09-22T11:01:11.610Z,3.53
2022-09-22T11:04:43.064Z,4.43
2022-09-22T11:08:16.530Z,4.50
2022-09-22T11:11:45.644Z,4.57
2022-09-22T11:15:13.144Z,11.95
2022-09-22T11:18:40.914Z,4.90
2022-09-22T11:21:58.468Z,4.50
2022-09-22T11:25:15.713Z,5.88
2022-09-22T11:28:36.003Z,16.17
2022-09-22T11:35:04.707Z,3.22
2022-09-22T11:41:31.061Z,3.10
2022-09-22T11:44:47.649Z,2.78
2022-09-22T11:48:04.834Z,2.58
2022-09-22T11:51:36.005Z,2.60
2022-09-22T11:55:04.559Z,2.58
2022-09-22T12:03:14.624Z,3.58
2022-09-22T12:06:22.271Z,3.35
2022-09-22T12:09:36.838Z,3.55
2022-09-22T12:12:44.783Z,3.33
2022-09-22T12:16:00.408Z,3.40
2022-09-22T12:19:14.476Z,3.47
2022-09-22T12:22:27.911Z,7.32
2022-09-22T12:25:49.042Z,3.55
2022-09-22T12:28:53.087Z,3.40
2022-09-22T12:31:59.166Z,3.15
2022-09-22T12:35:07.713Z,3.10
2022-09-22T12:38:13.413Z,3.10
2022-09-22T12:41:25.451Z,2.95
2022-09-22T12:44:31.437Z,2.55
2022-09-22T12:47:37.122Z,2.80
2022-09-22T12:50:44.421Z,2.50
2022-09-22T12:53:48.043Z,2.25
2022-09-22T12:56:57.798Z,2.40
2022-09-22T13:00:20.866Z,2.50
2022-09-22T13:03:49.810Z,2.65
2022-09-22T13:07:01.473Z,2.70
2022-09-22T13:10:41.784Z,3.45
2022-09-22T13:13:46.909Z,3.28
2022-09-22T13:16:50.491Z,3.00
2022-09-22T13:19:57.221Z,2.70
2022-09-22T13:23:12.088Z,2.80
2022-09-22T13:26:19.328Z,3.03
2022-09-22T13:29:23.622Z,3.50
2022-09-22T13:32:28.500Z,3.33
2022-09-22T13:35:36.285Z,16.35
2022-09-22T13:38:43.975Z,27.73
2022-09-22T13:41:50.853Z,11.20
2022-09-22T13:45:00.399Z,2.90
2022-09-22T13:48:08.847Z,3.60
2022-09-22T13:51:17.155Z,4.38
2022-09-22T13:54:24.612Z,3.67
2022-09-22T13:57:34.453Z,2.35
2022-09-22T14:01:21.469Z,2.65
2022-09-22T14:04:42.988Z,3.08
2022-09-22T14:08:11.931Z,2.45
2022-09-22T14:11:36.805Z,2.28
2022-09-22T14:14:43.306Z,2.60
2022-09-22T14:17:46.880Z,2.03
2022-09-22T14:33:16.496Z,4.10
2022-09-22T14:36:24.661Z,2.63
2022-09-22T14:39:40.780Z,2.55
2022-09-22T14:43:14.184Z,3.00
2022-09-22T14:50:12.906Z,2.92
2022-09-22T14:53:28.260Z,3.10
2022-09-22T14:56:44.127Z,2.70
2022-09-22T15:00:15.760Z,2.47
2022-09-22T15:03:25.101Z,1.90
2022-09-22T15:06:48.916Z,1.87
2022-09-22T15:14:33.712Z,2.40
2022-09-22T15:17:57.380Z,2.30
2022-09-22T15:21:08.404Z,2.35
2022-09-22T15:24:12.204Z,16.30
2022-09-22T15:27:25.795Z,6.20
2022-09-22T15:30:32.905Z,3.25
2022-09-22T15:33:45.600Z,3.22
2022-09-22T15:36:53.447Z,3.25
2022-09-22T15:39:58.649Z,3.50
2022-09-22T15:43:13.319Z,3.30
2022-09-22T15:46:29.420Z,4.32
2022-09-22T15:49:35.308Z,5.00
2022-09-22T15:52:38.740Z,4.60
2022-09-22T15:55:42.197Z,4.38
2022-09-22T15:58:45.799Z,4.70
2022-09-22T16:01:52.164Z,4.78
2022-09-22T16:05:00.203Z,4.28
2022-09-22T16:08:03.989Z,4.15
2022-09-22T16:11:07.436Z,4.28
2022-09-22T16:14:11.742Z,3.85
2022-09-22T16:17:16.583Z,3.60
2022-09-22T16:20:20.074Z,3.88
2022-09-22T16:23:23.431Z,7.93
2022-09-22T16:26:28.221Z,4.30
2022-09-22T16:29:32.673Z,4.88
2022-09-22T16:32:37.504Z,4.50
2022-09-22T16:35:41.891Z,6.63
2022-09-22T16:38:45.401Z,4.40
2022-09-22T16:41:48.816Z,4.63
2022-09-22T16:44:52.221Z,5.47
2022-09-22T16:47:57.063Z,4.43
2022-09-22T16:51:00.590Z,5.25
2022-09-22T16:54:05.643Z,5.63
2022-09-22T16:57:09.715Z,7.30
2022-09-22T17:00:13.992Z,7.47
2022-09-22T17:03:19.428Z,7.80
2022-09-22T17:06:25.587Z,8.27
2022-09-22T17:09:31.802Z,8.20
2022-09-22T17:12:37.017Z,8.02
2022-09-22T17:15:40.702Z,8.30
2022-09-22T17:18:46.205Z,8.48
2022-09-22T17:21:52.253Z,9.65
2022-09-22T17:24:57.720Z,9.13
2022-09-22T17:28:01.726Z,10.32
2022-09-22T17:31:07.633Z,10.50
2022-09-22T17:34:12.918Z,10.90
2022-09-22T17:37:16.532Z,11.77
2022-09-22T17:40:20.748Z,11.60
2022-09-22T17:43:24.801Z,13.27
2022-09-22T17:46:30.197Z,15.48
2022-09-22T17:49:53.363Z,21.55
2022-09-22T17:53:14.618Z,15.73
2022-09-22T17:56:19.127Z,15.25
2022-09-22T17:59:22.991Z,14.63
2022-09-22T18:02:29.610Z,13.13
2022-09-22T18:05:38.957Z,13.70
2022-09-22T18:08:44.897Z,13.27
2022-09-22T18:11:49.062Z,13.15
2022-09-22T18:15:04.860Z,14.32
2022-09-22T18:18:10.340Z,13.35
2022-09-22T18:21:17.115Z,14.63
2022-09-22T18:24:22.624Z,13.05
2022-09-22T18:27:30.660Z,14.02
2022-09-22T18:30:40.273Z,17.30
2022-09-22T18:33:46.858Z,15.37
2022-09-22T18:36:52.548Z,17.48
2022-09-22T18:39:56.528Z,21.10
2022-09-22T18:43:00.981Z,20.08
2022-09-22T18:46:07.404Z,22.10
2022-09-22T18:49:11.252Z,21.13
2022-09-22T18:52:18.110Z,22.33
2022-09-22T18:55:22.170Z,22.92
2022-09-22T18:58:25.886Z,24.38
2022-09-22T19:01:34.901Z,22.58
2022-09-22T19:04:39.646Z,25.33
2022-09-22T19:07:47.800Z,24.80
2022-09-22T19:10:52.030Z,23.55
2022-09-22T19:13:56.055Z,23.50
2022-09-22T19:17:00.597Z,23.60
2022-09-22T19:20:04.303Z,22.88
2022-09-22T19:23:09.358Z,22.13
2022-09-22T19:26:13.075Z,20.20
2022-09-22T19:29:17.149Z,20.13
2022-09-22T19:32:21.034Z,20.17
2022-09-22T19:35:24.923Z,21.65
2022-09-22T19:38:30.114Z,20.00
2022-09-22T19:41:34.475Z,19.33
2022-09-22T19:44:40.192Z,20.15
2022-09-22T19:47:43.839Z,20.95
2022-09-22T19:50:47.735Z,22.40
2022-09-22T19:53:52.818Z,23.40
2022-09-22T19:56:56.191Z,23.85
2022-09-22T19:59:59.580Z,25.05
2022-09-22T20:03:03.161Z,23.45
2022-09-22T20:06:06.832Z,25.30
2022-09-22T20:09:11.990Z,24.70
2022-09-22T20:12:15.361Z,24.98
2022-09-22T20:15:19.787Z,25.55
2022-09-22T20:18:23.070Z,24.90
2022-09-22T20:21:27.788Z,24.75
2022-09-22T20:24:32.598Z,24.13
2022-09-22T20:27:37.291Z,24.77
2022-09-22T20:30:41.623Z,23.95
2022-09-22T20:33:45.344Z,23.17
2022-09-22T20:36:48.674Z,23.02
2022-09-22T20:39:53.669Z,21.48
2022-09-22T20:42:57.261Z,20.73
2022-09-22T20:46:03.688Z,18.80
2022-09-22T20:49:07.156Z,18.67
2022-09-22T20:52:15.101Z,17.88
2022-09-22T20:55:19.824Z,17.23
2022-09-22T20:58:23.752Z,16.88
2022-09-22T21:01:27.625Z,15.95
2022-09-22T21:04:31.847Z,15.02
2022-09-22T21:07:35.497Z,15.65
2022-09-22T21:10:39.165Z,15.52
2022-09-22T21:13:42.555Z,15.43
2022-09-22T21:16:46.202Z,15.30
2022-09-22T21:19:49.551Z,14.10
2022-09-22T21:22:53.089Z,12.73
2022-09-22T21:25:59.851Z,12.02
2022-09-22T21:29:03.324Z,12.05
2022-09-22T21:32:07.137Z,12.30
2022-09-22T21:35:13.781Z,11.90
2022-09-22T21:38:18.363Z,11.73
2022-09-22T21:41:24.935Z,11.85
2022-09-22T21:44:28.214Z,11.73
2022-09-22T21:47:31.410Z,12.10
2022-09-22T21:50:34.664Z,11.32
2022-09-22T21:53:39.503Z,11.40
2022-09-22T21:56:44.446Z,11.23
2022-09-22T21:59:47.729Z,11.45
2022-09-22T22:03:09.101Z,11.63
2022-09-22T22:06:14.027Z,11.02
2022-09-22T22:09:19.438Z,10.95
2022-09-22T22:12:24.712Z,10.98
2022-09-22T22:15:28.335Z,11.20
2022-09-22T22:18:31.887Z,11.43
2022-09-22T22:21:35.715Z,10.98
2022-09-22T22:24:42.281Z,11.13
2022-09-22T22:27:46.987Z,10.52
2022-09-22T22:30:50.304Z,11.20
2022-09-22T22:33:53.660Z,11.18
2022-09-22T22:36:58.042Z,11.20
2022-09-22T22:40:01.428Z,11.57
2022-09-22T22:43:06.164Z,11.75
2022-09-22T22:46:11.217Z,10.80
2022-09-22T22:49:14.755Z,11.20
2022-09-22T22:52:18.599Z,11.25
2022-09-22T22:55:21.886Z,10.93
2022-09-22T22:58:28.751Z,11.00
2022-09-22T23:01:33.570Z,11.40
2022-09-22T23:04:36.840Z,11.68
2022-09-22T23:07:40.239Z,11.70
2022-09-22T23:10:43.487Z,11.68
2022-09-22T23:13:51.024Z,11.35
2022-09-22T23:16:54.279Z,12.18
2022-09-22T23:19:57.743Z,12.02
2022-09-22T23:23:01.838Z,12.82
2022-09-22T23:26:06.103Z,12.48
2022-09-22T23:29:10.792Z,12.65
2022-09-22T23:32:14.940Z,11.95
2022-09-22T23:35:18.219Z,11.75
2022-09-22T23:38:21.534Z,12.05
2022-09-22T23:41:25.209Z,11.10
2022-09-22T23:44:29.796Z,11.50
2022-09-22T23:47:33.070Z,12.80
2022-09-22T23:50:36.900Z,12.20
2022-09-22T23:53:40.361Z,12.60
2022-09-22T23:56:43.788Z,11.60
2022-09-22T23:59:48.506Z,12.10
